UPSVAC Airport Information Service

Orlando International Airport

ICAO: KMCO Country: United States
Latitude: 28.4294 Longitude: -81.3089
Latest Arrival : UPS1911 (KTPA-KMCO) Latest Departure : UPS142 (KMCO-KCAE)


WX CaptureLIVE
Data provided by noaa.gov | Fetched at 21:34:40

METAR : KMCO 272053Z 09012KT 10SM BKN055 BKN075 28/19 A3016 RMK AO2 SLP210 T02780194 55014

TAF : KMCO 272059Z 2721/2824 09012KT P6SM BKN060 BKN080 FM272300 12006KT P6SM FEW060 SCT250 FM281400 15010KT P6SM SCT025 SCT250


Runway Data for KMCO
Data provided by openaviationdata.com

Runway ID Mag Var Hdg Length Elevation Surface ILS Freq ILS Id ILS Slope
17L -5 184° 9025 ft 96 ft Concrete 110.95 IARK 3
17R -5 184° 10027 ft 96 ft Concrete 111.75 IDIZ 3
18L -5 184° 12037 ft 96 ft Asphalt -- -- --
18R -5 184° 12037 ft 96 ft Concrete 111.9 ITFE 3
35L -5 10027 ft 96 ft Concrete 110.5 IDDO 3
35R -5 9025 ft 96 ft Concrete 111.15 ICER 3
36L -5 12037 ft 96 ft Concrete -- -- --
36R -5 12037 ft 96 ft Asphalt 110.7 IOJP 3

Orlando International Airport, United States
Use only for reference purposes



Not for navigational purposes.